Time;durP1;ratioP1;P1;durP2;ratioP2;P2;SDS_P1;SDS_P2;PMS_P1;PMS_P2;Temp;Humidity;BMP_temperature;BMP_pressure;BME280_temperature;BME280_humidity;BME280_pressure;Samples;Min_cycle;Max_cycle;Signal;HPM_P1;HPM_P2
2022/09/16 00:01:26;;;;;;;0.00;0.00;;;;;;;14.94;66.81;101177.31;5075192;28;20047;-80
2022/09/16 00:03:55;;;;;;;0.10;0.10;;;;;;;14.98;66.44;101174.50;5073188;28;20044;-80
2022/09/16 00:09:00;;;;;;;0.10;0.10;;;;;;;15.05;66.73;101196.50;5109462;27;20400;-80
2022/09/16 00:11:27;;;;;;;0.10;0.10;;;;;;;15.04;66.50;101200.09;5089549;28;20028;-79
2022/09/16 00:13:53;;;;;;;0.10;0.10;;;;;;;15.01;67.06;101186.88;5085435;28;20494;-79
2022/09/16 00:16:23;;;;;;;0.10;0.10;;;;;;;15.04;67.69;101181.41;5087641;28;20059;-80
2022/09/16 00:18:54;;;;;;;0.30;0.22;;;;;;;15.10;67.70;101170.53;5081545;28;20505;-80
2022/09/16 00:21:21;;;;;;;0.10;0.10;;;;;;;15.13;67.50;101167.78;5079271;28;20098;-80
2022/09/16 00:23:47;;;;;;;0.10;0.10;;;;;;;15.15;67.39;101171.28;5085497;28;20090;-80
2022/09/16 00:26:13;;;;;;;0.10;0.10;;;;;;;15.18;67.40;101175.63;5077598;28;20035;-80
2022/09/16 00:28:39;;;;;;;0.10;0.10;;;;;;;15.15;68.31;101171.28;5079449;28;20024;-80
2022/09/16 00:31:05;;;;;;;0.10;0.10;;;;;;;15.16;68.06;101174.81;5079262;28;20037;-80
2022/09/16 00:33:32;;;;;;;0.10;0.10;;;;;;;15.15;67.86;101175.72;5087793;28;20051;-80
2022/09/16 00:38:44;;;;;;;0.00;0.00;;;;;;;15.15;68.24;101176.63;5063373;28;20454;-80
2022/09/16 00:41:16;;;;;;;0.10;0.10;;;;;;;15.24;67.56;101180.75;5041869;28;20519;-80
2022/09/16 00:44:01;;;;;;;0.10;0.10;;;;;;;15.23;66.98;101184.34;5043652;28;20029;-80
2022/09/16 00:49:30;;;;;;;0.00;0.00;;;;;;;15.17;66.06;101190.75;5066868;28;20737;-80
2022/09/16 00:52:02;;;;;;;0.00;0.00;;;;;;;15.20;65.68;101184.44;5031465;28;20064;-80
2022/09/16 00:54:29;;;;;;;;;;;;;;;15.33;65.71;101190.25;5033530;28;20029;-81
2022/09/16 00:56:58;;;;;;;0.10;0.10;;;;;;;15.18;66.21;101187.16;5028796;28;20291;-80
2022/09/16 00:59:30;;;;;;;0.57;0.57;;;;;;;15.14;65.88;101193.53;5027222;28;20395;-80
2022/09/16 01:02:00;;;;;;;0.10;0.10;;;;;;;15.15;66.02;101186.41;5023100;28;20429;-80
2022/09/16 01:04:30;;;;;;;0.00;0.00;;;;;;;15.11;66.40;101185.63;5029921;28;20021;-80
2022/09/16 01:06:56;;;;;;;0.00;0.00;;;;;;;15.17;66.05;101179.22;5024833;28;20034;-80
2022/09/16 01:09:25;;;;;;;0.05;0.05;;;;;;;15.20;65.83;101179.09;5027315;28;20116;-80
2022/09/16 01:11:51;;;;;;;0.10;0.10;;;;;;;15.27;65.87;101185.13;5029200;28;20034;-79
2022/09/16 01:17:22;;;;;;;0.03;0.03;;;;;;;15.38;66.17;101182.97;5023532;28;20034;-80
2022/09/16 01:23:11;;;;;;;0.10;0.10;;;;;;;15.48;66.33;101183.50;5149012;27;20414;-79
2022/09/16 01:26:09;;;;;;;0.10;0.10;;;;;;;15.52;66.46;101186.00;5144837;27;20118;-79
2022/09/16 01:31:51;;;;;;;0.10;0.10;;;;;;;15.53;66.56;101182.41;5092735;27;1172591;-80
2022/09/16 01:37:07;;;;;;;0.10;0.10;;;;;;;15.46;67.07;101174.66;5042507;28;20414;-77
2022/09/16 01:48:26;;;;;;;0.10;0.10;;;;;;;15.24;67.62;101195.88;5105796;27;1197807;-79
2022/09/16 01:53:50;;;;;;;0.10;0.10;;;;;;;15.01;68.22;101189.53;5042060;28;20463;-79
2022/09/16 01:59:16;;;;;;;0.03;0.03;;;;;;;15.25;68.16;101194.97;5139029;27;20349;-79
2022/09/16 02:02:08;;;;;;;0.00;0.00;;;;;;;15.21;67.60;101196.88;5110416;28;20028;-79
2022/09/16 02:04:41;;;;;;;0.05;0.05;;;;;;;15.12;68.29;101192.72;5111560;28;20028;-79
2022/09/16 02:07:10;;;;;;;0.10;0.10;;;;;;;15.09;68.50;101186.59;5111551;28;20031;-79
2022/09/16 02:09:41;;;;;;;0.08;0.08;;;;;;;15.05;68.18;101185.84;5109699;28;20061;-80
2022/09/16 02:12:13;;;;;;;0.08;0.08;;;;;;;15.07;68.50;101193.81;5111958;28;20023;-80
2022/09/16 02:14:43;;;;;;;0.15;0.15;;;;;;;15.03;68.40;101190.38;5107896;28;20059;-79
2022/09/16 02:17:13;;;;;;;0.10;0.10;;;;;;;15.07;68.16;101186.66;5107917;28;20050;-79
2022/09/16 02:20:01;;;;;;;0.00;0.00;;;;;;;15.09;67.80;101198.16;5107839;28;20024;-79
2022/09/16 02:22:42;;;;;;;0.10;0.10;;;;;;;15.10;68.11;101194.56;5107562;28;20024;-79
2022/09/16 02:25:12;;;;;;;0.05;0.05;;;;;;;15.10;67.55;101194.56;5107554;28;20036;-79
2022/09/16 02:27:41;;;;;;;0.10;0.10;;;;;;;15.08;68.00;101191.09;5108238;28;20020;-79
2022/09/16 02:30:14;;;;;;;0.10;0.10;;;;;;;15.04;68.21;101189.41;5108624;27;20050;-79
2022/09/16 02:32:46;;;;;;;0.00;0.00;;;;;;;15.04;68.13;101197.41;5108994;28;20032;-80
2022/09/16 02:35:17;;;;;;;0.10;0.10;;;;;;;15.01;68.35;101195.72;5109154;28;20035;-79
2022/09/16 02:37:50;;;;;;;0.10;0.10;;;;;;;14.98;68.34;101185.16;5112166;28;20510;-80
2022/09/16 02:40:23;;;;;;;0.10;0.10;;;;;;;14.99;68.10;101183.38;5104433;28;20028;-80
2022/09/16 02:42:49;;;;;;;;;;;;;;;15.15;67.67;101179.28;5102303;28;20036;-79
2022/09/16 02:45:15;;;;;;;0.10;0.10;;;;;;;15.04;67.85;101179.63;5106948;28;20508;-79
2022/09/16 02:53:44;;;;;;;0.00;0.00;;;;;;;15.15;67.68;101178.41;5071429;27;20140;-79
2022/09/16 02:56:22;;;;;;;0.10;0.10;;;;;;;15.08;67.89;101185.75;5020602;28;20030;-79
2022/09/16 02:58:48;;;;;;;0.00;0.00;;;;;;;15.04;67.90;101182.31;5025267;28;20033;-79
2022/09/16 03:01:16;;;;;;;0.00;0.00;;;;;;;15.03;67.72;101185.03;5028757;28;20030;-79
2022/09/16 03:03:42;;;;;;;0.00;0.00;;;;;;;15.02;67.87;101192.16;5026365;28;20044;-79
2022/09/16 03:09:00;;;;;;;0.10;0.10;;;;;;;15.11;67.55;101203.44;5076270;27;20697;-79
2022/09/16 03:23:17;;;;;;;0.10;0.10;;;;;;;14.53;66.63;101204.38;5113632;27;1198330;-77
2022/09/16 03:25:56;;;;;;;0.00;0.00;;;;;;;14.41;66.79;101186.94;5107163;28;20031;-78
2022/09/16 03:28:34;;;;;;;0.10;0.10;;;;;;;14.33;67.13;101171.19;5101709;28;20044;-79
2022/09/16 03:31:10;;;;;;;0.10;0.10;;;;;;;14.32;67.26;101173.91;5106684;28;20028;-79
2022/09/16 03:33:46;;;;;;;0.03;0.03;;;;;;;14.34;67.58;101169.38;5105745;28;20028;-77
2022/09/16 03:36:18;;;;;;;0.10;0.10;;;;;;;14.37;67.67;101172.81;5101271;28;20093;-78
2022/09/16 03:38:45;;;;;;;0.10;0.10;;;;;;;14.40;67.87;101171.84;5106765;28;20503;-79
2022/09/16 03:41:12;;;;;;;0.00;0.00;;;;;;;14.44;67.98;101173.50;5102400;28;20040;-78
2022/09/16 03:43:39;;;;;;;0.10;0.10;;;;;;;14.46;67.86;101170.81;5099991;28;20028;-80
2022/09/16 03:46:10;;;;;;;0.10;0.10;;;;;;;14.50;68.07;101170.66;5102406;28;20489;-80
2022/09/16 03:48:36;;;;;;;0.10;0.10;;;;;;;14.51;68.42;101172.41;5107546;28;20077;-80
2022/09/16 03:51:02;;;;;;;0.10;0.10;;;;;;;14.53;68.04;101173.22;5104924;28;20028;-80
2022/09/16 03:53:29;;;;;;;0.10;0.10;;;;;;;14.56;68.07;101166.94;5101563;28;20023;-80
2022/09/16 03:55:55;;;;;;;0.10;0.10;;;;;;;14.57;68.40;101195.34;5102812;28;20130;-80
2022/09/16 03:58:21;;;;;;;0.10;0.10;;;;;;;14.52;68.60;101192.81;5105559;28;20036;-81
2022/09/16 04:00:50;;;;;;;0.03;0.03;;;;;;;14.51;68.28;101193.72;5105985;28;20562;-80
2022/09/16 04:03:16;;;;;;;0.10;0.10;;;;;;;14.38;68.21;101190.56;5104429;28;20819;-79
2022/09/16 04:05:43;;;;;;;0.00;0.00;;;;;;;14.29;68.31;101189.97;5101366;28;20028;-79
2022/09/16 04:08:09;;;;;;;0.20;0.20;;;;;;;14.29;68.20;101189.97;5099831;28;20032;-79
2022/09/16 04:10:35;;;;;;;0.03;0.03;;;;;;;14.34;68.18;101193.38;5106040;28;20027;-79
2022/09/16 04:13:01;;;;;;;0.10;0.10;;;;;;;14.35;68.33;101187.13;5103190;28;20032;-80
2022/09/16 04:15:27;;;;;;;0.10;0.10;;;;;;;14.33;68.19;101188.94;5105818;28;20024;-80
2022/09/16 04:17:55;;;;;;;0.10;0.10;;;;;;;14.35;68.27;101180.00;5105132;28;20082;-80
2022/09/16 04:20:22;;;;;;;0.68;0.65;;;;;;;14.39;68.46;101172.78;5103616;28;20037;-80
2022/09/16 04:22:48;;;;;;;0.10;0.10;;;;;;;14.40;68.27;101171.84;5102486;28;20476;-80
2022/09/16 04:25:15;;;;;;;0.10;0.10;;;;;;;14.41;68.27;101176.28;5103674;28;20039;-79
2022/09/16 04:27:41;;;;;;;0.10;0.10;;;;;;;14.44;68.24;101164.66;5105591;28;20032;-80
2022/09/16 04:30:08;;;;;;;0.10;0.10;;;;;;;14.47;68.48;101169.91;5102656;28;20028;-80
2022/09/16 04:32:34;;;;;;;0.10;0.10;;;;;;;14.45;68.54;101177.06;5100972;28;20035;-79
2022/09/16 04:35:00;;;;;;;0.10;0.10;;;;;;;14.44;68.28;101170.84;5090528;28;20030;-79
2022/09/16 04:37:28;;;;;;;0.10;0.10;;;;;;;14.41;68.24;101162.94;5089691;28;20400;-79
2022/09/16 04:39:54;;;;;;;0.00;0.00;;;;;;;14.41;68.52;101165.63;5090161;28;20404;-80
2022/09/16 04:42:20;;;;;;;0.10;0.10;;;;;;;14.40;68.51;101163.88;5089544;28;20405;-79
2022/09/16 04:44:46;;;;;;;0.10;0.10;;;;;;;14.38;68.79;101163.91;5085230;28;20493;-80
2022/09/16 04:47:12;;;;;;;0.10;0.10;;;;;;;14.42;68.13;101170.03;5088198;28;20056;-80
2022/09/16 04:49:38;;;;;;;0.00;0.00;;;;;;;14.40;68.76;101169.19;5086411;28;20031;-80
2022/09/16 04:52:05;;;;;;;0.10;0.10;;;;;;;14.38;68.71;101168.34;5086259;28;20024;-79
2022/09/16 04:54:31;;;;;;;0.00;0.00;;;;;;;14.35;69.00;101173.78;5094041;28;20028;-79
2022/09/16 04:56:57;;;;;;;0.00;0.00;;;;;;;14.33;68.38;101172.97;5090125;28;20047;-80
2022/09/16 04:59:23;;;;;;;0.10;0.10;;;;;;;14.29;68.44;101164.19;5090448;28;20032;-80
2022/09/16 05:01:49;;;;;;;0.00;0.00;;;;;;;14.24;68.45;101160.78;5090765;28;20036;-80
2022/09/16 05:04:15;;;;;;;0.10;0.10;;;;;;;14.20;67.93;101165.34;5091188;28;20057;-79
2022/09/16 05:06:43;;;;;;;0.10;0.10;;;;;;;14.16;68.31;101174.34;5085311;28;20036;-79
2022/09/16 05:09:11;;;;;;;0.10;0.10;;;;;;;14.15;68.22;101175.25;5086331;28;20024;-80
2022/09/16 05:11:38;;;;;;;0.10;0.10;;;;;;;14.15;68.37;101185.91;5086944;28;20466;-80
2022/09/16 05:14:07;;;;;;;0.30;0.30;;;;;;;14.13;68.07;101185.13;5086654;28;20028;-80
2022/09/16 05:16:33;;;;;;;0.10;0.10;;;;;;;14.09;68.35;101178.09;5094276;28;20044;-80
2022/09/16 05:19:03;;;;;;;0.10;0.10;;;;;;;14.07;68.54;101174.63;5086862;28;20107;-80
2022/09/16 05:21:31;;;;;;;0.10;0.10;;;;;;;14.05;68.63;101185.31;5088601;28;20115;-80
2022/09/16 05:24:01;;;;;;;0.10;0.10;;;;;;;14.03;68.43;101189.84;5087893;28;20502;-81
2022/09/16 05:26:34;;;;;;;0.10;0.10;;;;;;;14.01;68.55;101193.47;5093871;28;20050;-80
2022/09/16 05:29:02;;;;;;;0.10;0.10;;;;;;;13.98;68.46;101194.44;5094947;28;20024;-80
2022/09/16 05:31:31;;;;;;;0.10;0.10;;;;;;;13.98;68.60;101196.19;5088228;28;20107;-81
2022/09/16 05:34:00;;;;;;;0.08;0.08;;;;;;;13.96;68.45;101193.59;5090096;28;20038;-80
2022/09/16 05:36:28;;;;;;;0.10;0.10;;;;;;;13.95;68.19;101191.84;5085764;28;20032;-80
2022/09/16 05:38:55;;;;;;;0.10;0.10;;;;;;;13.94;68.45;101189.22;5090476;28;20028;-81
2022/09/16 05:41:22;;;;;;;0.00;0.00;;;;;;;13.94;69.16;101195.41;5084641;28;20119;-80
2022/09/16 05:43:48;;;;;;;0.00;0.00;;;;;;;13.94;68.57;101195.41;5086464;28;20028;-80
2022/09/16 05:46:18;;;;;;;1.77;1.38;;;;;;;13.95;68.45;101194.50;5089927;28;20517;-81
2022/09/16 05:48:45;;;;;;;0.10;0.10;;;;;;;13.94;68.77;101194.53;5088787;28;20020;-81
2022/09/16 05:51:14;;;;;;;0.10;0.10;;;;;;;13.94;68.48;101190.09;5086015;28;20027;-82
2022/09/16 05:53:40;;;;;;;0.10;0.10;;;;;;;13.93;68.10;101192.78;5089329;28;20031;-81
2022/09/16 05:56:10;;;;;;;0.10;0.10;;;;;;;13.97;68.59;101194.44;5087817;28;20031;-82
2022/09/16 05:58:39;;;;;;;0.10;0.10;;;;;;;14.01;68.83;101196.97;5087293;28;20032;-79
2022/09/16 06:01:09;;;;;;;0.10;0.10;;;;;;;14.09;68.35;101199.41;5092576;28;20043;-79
2022/09/16 06:03:37;;;;;;;0.10;0.10;;;;;;;14.15;68.98;101199.25;5080111;28;20638;-80
2022/09/16 06:06:12;;;;;;;0.10;0.10;;;;;;;14.27;68.90;101203.34;5083281;28;20111;-79
2022/09/16 06:08:39;;;;;;;0.05;0.05;;;;;;;14.32;69.00;101196.09;5088384;28;20024;-78
2022/09/16 06:11:08;;;;;;;0.10;0.10;;;;;;;14.43;69.29;101201.09;5095119;28;20637;-79
2022/09/16 06:13:35;;;;;;;0.10;0.10;;;;;;;14.54;69.20;101198.97;5081384;28;20056;-79
2022/09/16 06:16:03;;;;;;;0.10;0.10;;;;;;;14.71;68.77;101197.59;5087786;28;20131;-79
2022/09/16 06:18:30;;;;;;;0.00;0.00;;;;;;;14.89;69.20;101206.78;5084575;28;20038;-79
2022/09/16 06:20:57;;;;;;;0.00;0.00;;;;;;;14.99;69.20;101221.59;5095247;28;20028;-79
2022/09/16 06:23:24;;;;;;;0.10;0.10;;;;;;;14.86;69.36;101239.78;5092354;28;20435;-79
2022/09/16 06:26:00;;;;;;;0.10;0.10;;;;;;;14.49;65.73;101240.91;5082330;28;20024;-79
2022/09/16 06:28:26;;;;;;;0.08;0.08;;;;;;;14.00;66.70;101248.50;5087449;28;20027;-79
2022/09/16 06:31:16;;;;;;;0.10;0.10;;;;;;;13.77;68.67;101246.50;5083551;28;20517;-80
2022/09/16 06:33:43;;;;;;;0.10;0.10;;;;;;;13.67;69.22;101226.34;5089539;28;20056;-79
2022/09/16 06:38:46;;;;;;;0.00;0.00;;;;;;;13.81;69.11;101210.88;5098872;27;20409;-77
2022/09/16 06:41:14;;;;;;;0.10;0.10;;;;;;;13.88;69.68;101203.56;5092676;28;20498;-78
2022/09/16 06:43:41;;;;;;;0.20;0.20;;;;;;;13.94;69.18;101197.22;5095055;28;20032;-78
2022/09/16 06:46:18;;;;;;;0.10;0.10;;;;;;;13.98;69.36;101206.84;5091004;28;20054;-78
2022/09/16 06:48:46;;;;;;;0.10;0.10;;;;;;;13.99;69.30;101209.47;5091934;28;20020;-78
2022/09/16 06:51:15;;;;;;;0.10;0.10;;;;;;;14.00;70.18;101205.88;5093868;28;20020;-78
2022/09/16 06:53:42;;;;;;;0.10;0.10;;;;;;;14.03;69.54;101200.50;5092524;28;20031;-78
2022/09/16 06:56:11;;;;;;;0.15;0.15;;;;;;;14.07;69.55;101203.94;5094708;28;20028;-80
2022/09/16 06:58:40;;;;;;;0.10;0.10;;;;;;;14.08;69.58;101201.22;5094964;28;20608;-79
2022/09/16 07:01:08;;;;;;;0.10;0.10;;;;;;;14.12;69.41;101204.69;5096798;28;20043;-80
2022/09/16 07:03:37;;;;;;;0.10;0.10;;;;;;;14.20;69.59;101196.44;5104394;28;20034;-80
2022/09/16 07:06:04;;;;;;;0.10;0.10;;;;;;;14.27;69.23;101199.78;5111719;27;20036;-80
2022/09/16 07:08:31;;;;;;;0.10;0.10;;;;;;;14.32;70.04;101197.91;5096164;28;20020;-80
2022/09/16 07:13:35;;;;;;;0.10;0.10;;;;;;;14.47;69.87;101194.75;5102210;27;20359;-81
2022/09/16 07:16:05;;;;;;;0.10;0.10;;;;;;;14.53;69.64;101194.56;5107667;28;20436;-81
2022/09/16 07:18:32;;;;;;;0.00;0.00;;;;;;;14.62;69.91;101200.53;5105683;28;20024;-80
2022/09/16 07:23:42;;;;;;;0.10;0.10;;;;;;;14.90;69.77;101202.34;5047507;28;20389;-80
2022/09/16 07:26:14;;;;;;;0.00;0.00;;;;;;;15.04;70.26;101209.00;5044542;28;20647;-80
2022/09/16 07:28:42;;;;;;;0.10;0.10;;;;;;;15.23;70.22;101204.81;5046882;28;20029;-80
2022/09/16 07:31:10;;;;;;;0.10;0.10;;;;;;;15.41;70.01;101214.88;5047720;28;20029;-80
2022/09/16 07:33:39;;;;;;;0.10;0.10;;;;;;;15.56;70.05;101217.94;5048624;28;20028;-80
2022/09/16 07:36:07;;;;;;;0.10;0.10;;;;;;;15.72;70.27;101212.94;5046575;28;20673;-80
2022/09/16 07:38:34;;;;;;;0.10;0.10;;;;;;;15.87;69.92;101222.25;5046616;28;20068;-80
2022/09/16 07:41:12;;;;;;;0.10;0.10;;;;;;;15.99;69.25;101229.81;5047933;28;20400;-81
2022/09/16 07:43:40;;;;;;;0.10;0.10;;;;;;;15.93;68.20;101227.38;5046475;28;20056;-80
2022/09/16 07:46:09;;;;;;;0.10;0.10;;;;;;;15.96;68.00;101225.47;5048240;28;20079;-80
2022/09/16 07:48:36;;;;;;;0.10;0.10;;;;;;;15.98;67.51;101220.06;5049328;28;20488;-80
2022/09/16 07:51:05;;;;;;;0.00;0.00;;;;;;;15.99;66.98;101222.66;5046589;28;20112;-81
2022/09/16 07:53:32;;;;;;;0.47;0.45;;;;;;;16.00;66.76;101218.19;5046427;28;20124;-81
2022/09/16 07:56:06;;;;;;;0.10;0.10;;;;;;;16.07;66.68;101219.69;5047959;28;20036;-81
2022/09/16 07:58:32;;;;;;;0.08;0.08;;;;;;;16.13;66.94;101222.16;5048416;28;20572;-81
2022/09/16 08:00:59;;;;;;;0.00;0.00;;;;;;;16.23;67.24;101221.81;5046304;28;20103;-80
2022/09/16 08:03:25;;;;;;;0.10;0.10;;;;;;;16.35;67.13;101218.69;5037162;28;20116;-81
2022/09/16 08:05:52;;;;;;;0.08;0.08;;;;;;;16.43;66.87;101224.59;5032260;28;20037;-81
2022/09/16 08:08:18;;;;;;;0.10;0.10;;;;;;;16.54;67.04;101242.03;5036057;28;20378;-80
2022/09/16 08:10:54;;;;;;;0.10;0.10;;;;;;;16.57;66.56;101249.94;5048578;28;20423;-80
2022/09/16 08:13:20;;;;;;;0.03;0.03;;;;;;;16.45;66.29;101236.09;5049778;28;20036;-80
2022/09/16 08:15:47;;;;;;;0.10;0.10;;;;;;;16.40;66.75;101256.81;5049801;28;20037;-80
2022/09/16 08:18:13;;;;;;;0.10;0.10;;;;;;;16.37;66.69;101235.50;5047265;28;20040;-80
2022/09/16 08:20:39;;;;;;;0.10;0.10;;;;;;;16.37;66.90;101240.88;5045526;28;20036;-80
2022/09/16 08:23:05;;;;;;;0.00;0.00;;;;;;;16.40;67.45;101254.13;5030692;28;20091;-80
2022/09/16 08:25:31;;;;;;;0.00;0.00;;;;;;;16.42;66.93;101278.13;5037745;28;20049;-80
2022/09/16 08:27:57;;;;;;;0.10;0.10;;;;;;;16.26;64.86;101284.06;5043267;28;20029;-80
2022/09/16 08:30:23;;;;;;;0.10;0.10;;;;;;;16.20;65.14;101286.06;5048620;28;20025;-80
2022/09/16 08:32:58;;;;;;;1.20;1.10;;;;;;;16.15;65.52;101271.09;5049094;28;20476;-80
2022/09/16 08:35:25;;;;;;;0.10;0.10;;;;;;;15.96;66.03;101278.00;5026416;28;20037;-80
2022/09/16 08:37:52;;;;;;;0.28;0.28;;;;;;;15.76;64.61;101273.34;5022576;28;20049;-80
2022/09/16 08:40:22;;;;;;;0.10;0.10;;;;;;;15.65;65.22;101269.25;5022733;28;20036;-80
2022/09/16 08:43:08;;;;;;;0.00;0.00;;;;;;;15.60;64.95;101267.66;5035244;28;20108;-80
2022/09/16 08:45:55;;;;;;;0.10;0.10;;;;;;;15.59;65.48;101269.47;5035156;28;20033;-81
2022/09/16 08:48:34;;;;;;;0.10;0.10;;;;;;;15.50;65.28;101267.97;5034431;28;20025;-81
2022/09/16 08:51:01;;;;;;;0.10;0.10;;;;;;;15.43;65.70;101271.78;5030076;28;20497;-80
2022/09/16 08:56:26;;;;;;;1.08;1.08;;;;;;;15.53;65.69;101283.88;5101536;27;20384;-77
2022/09/16 08:58:56;;;;;;;0.00;0.00;;;;;;;15.63;65.87;101278.25;5103385;28;20055;-76
2022/09/16 09:01:47;;;;;;;0.10;0.10;;;;;;;15.77;66.09;101281.31;5100477;28;20028;-77
2022/09/16 09:04:13;;;;;;;0.10;0.10;;;;;;;15.93;66.21;101296.84;5104851;28;20028;-76
2022/09/16 09:06:57;;;;;;;0.10;0.10;;;;;;;16.12;65.75;101305.94;5094265;28;20028;-76
2022/09/16 09:12:13;;;;;;;0.10;0.10;;;;;;;16.08;64.65;101303.44;5071665;28;20386;-79
2022/09/16 09:17:43;;;;;;;0.10;0.10;;;;;;;15.97;64.59;101295.81;5020758;28;20337;-78
2022/09/16 09:26:13;;;;;;;0.80;0.80;;;;;;;16.08;65.51;101298.97;5091650;27;20408;-76
2022/09/16 09:29:07;;;;;;;0.10;0.10;;;;;;;16.25;66.19;101300.16;5086551;28;20025;-79
2022/09/16 09:31:51;;;;;;;0.10;0.10;;;;;;;16.41;66.00;101296.00;5088547;28;20024;-78
2022/09/16 09:37:30;;;;;;;0.00;0.00;;;;;;;16.80;65.33;101287.38;5107624;27;20890;-80
2022/09/16 09:48:20;;;;;;;0.10;0.10;;;;;;;17.05;62.71;101288.25;5113964;27;20380;-77
2022/09/16 09:50:49;;;;;;;0.10;0.10;;;;;;;16.93;62.13;101289.59;5087104;28;20094;-78
2022/09/16 09:53:27;;;;;;;0.08;0.08;;;;;;;16.81;62.12;101294.47;5090055;28;20036;-78
2022/09/16 09:56:17;;;;;;;0.10;0.10;;;;;;;16.75;63.16;101302.75;5099929;27;20520;-78
2022/09/16 09:59:08;;;;;;;0.00;0.00;;;;;;;16.71;63.63;101290.41;5083648;28;20056;-79
2022/09/16 10:01:34;;;;;;;0.10;0.10;;;;;;;16.68;63.10;101282.50;5080854;28;20064;-78
2022/09/16 10:04:00;;;;;;;0.10;0.10;;;;;;;16.71;63.08;101279.72;5076494;28;20043;-78
2022/09/16 10:06:34;;;;;;;0.00;0.00;;;;;;;16.84;63.46;101268.53;5079818;28;20520;-78
2022/09/16 10:09:00;;;;;;;0.10;0.10;;;;;;;16.82;63.46;101269.47;5080021;28;20371;-77
2022/09/16 10:11:30;;;;;;;0.00;0.00;;;;;;;16.90;63.61;101273.66;5080405;28;20063;-78
2022/09/16 10:13:59;;;;;;;0.10;0.10;;;;;;;16.98;63.54;101279.56;5077066;28;20036;-78
2022/09/16 10:16:35;;;;;;;0.00;0.00;;;;;;;16.95;62.40;101271.69;5079310;28;20056;-78
2022/09/16 10:19:07;;;;;;;0.10;0.10;;;;;;;16.80;62.99;101290.03;5079487;28;20044;-77
2022/09/16 10:21:44;;;;;;;0.10;0.10;;;;;;;16.70;63.20;101296.69;5076489;28;20028;-77
2022/09/16 10:24:33;;;;;;;0.20;0.20;;;;;;;16.61;62.88;101289.00;5079981;28;20032;-77
2022/09/16 10:27:01;;;;;;;0.00;0.00;;;;;;;16.37;63.34;101291.69;5079365;28;20032;-78
2022/09/16 10:29:28;;;;;;;0.20;0.20;;;;;;;16.11;63.75;101290.84;5073003;28;20028;-77
2022/09/16 10:31:55;;;;;;;0.10;0.10;;;;;;;15.95;64.10;101298.53;5075983;28;20032;-78
2022/09/16 10:34:40;;;;;;;0.00;0.00;;;;;;;15.92;63.67;101292.44;5075608;28;20033;-78
2022/09/16 10:39:51;;;;;;;0.03;0.03;;;;;;;15.71;64.29;101286.00;5054861;28;20357;-80
2022/09/16 10:42:27;;;;;;;0.10;0.10;;;;;;;15.73;64.22;101287.69;5061676;28;20032;-80
2022/09/16 10:45:00;;;;;;;1.45;1.05;;;;;;;15.69;64.83;101291.41;5054029;28;20395;-80
2022/09/16 10:47:30;;;;;;;0.10;0.10;;;;;;;15.74;65.04;101285.88;5051920;28;20067;-80
2022/09/16 10:50:00;;;;;;;0.00;0.00;;;;;;;15.81;64.84;101277.63;5048933;28;20060;-80
2022/09/16 10:52:30;;;;;;;0.10;0.10;;;;;;;16.02;65.50;101283.16;5051074;28;20033;-78
2022/09/16 10:55:08;;;;;;;0.00;0.00;;;;;;;16.16;64.62;101275.50;5051126;28;20043;-80
2022/09/16 10:57:39;;;;;;;0.00;0.00;;;;;;;16.30;64.39;101274.13;5054914;28;20127;-80
2022/09/16 11:00:15;;;;;;;0.00;0.00;;;;;;;16.61;63.69;101272.94;5050836;28;20202;-80
2022/09/16 11:03:21;;;;;;;0.00;0.00;;;;;;;17.03;63.94;101274.91;5050661;28;20113;-80
2022/09/16 11:06:05;;;;;;;0.00;0.00;;;;;;;17.12;63.15;101297.75;5051543;28;20047;-79
2022/09/16 11:19:30;;;;;;;0.10;0.10;;;;;;;16.06;64.40;101300.81;5172288;27;20045;-79
2022/09/16 11:27:37;;;;;;;0.10;0.10;;;;;;;16.69;65.29;101305.66;5092288;27;20133;-77
2022/09/16 11:41:02;;;;;;;0.10;0.10;;;;;;;17.04;63.94;101298.06;5053638;28;20391;-78
2022/09/16 11:43:46;;;;;;;0.10;0.10;;;;;;;16.98;63.51;101290.28;5052625;28;20036;-77
2022/09/16 11:46:42;;;;;;;0.00;0.00;;;;;;;17.07;63.43;101297.97;5052117;28;20559;-77
2022/09/16 11:49:48;;;;;;;0.10;0.10;;;;;;;17.40;63.16;101299.34;5051893;28;20053;-78
2022/09/16 11:55:30;;;;;;;0.57;0.57;;;;;;;17.55;58.94;101320.09;5061344;27;1878061;-79
2022/09/16 11:58:02;;;;;;;0.10;0.10;;;;;;;17.49;60.13;101322.19;5112311;28;20040;-80
2022/09/16 12:00:31;;;;;;;0.10;0.10;;;;;;;17.39;59.84;101319.88;5117083;28;20114;-79
2022/09/16 12:03:11;;;;;;;0.10;0.10;;;;;;;17.20;59.87;101324.25;5119566;28;20023;-78
2022/09/16 12:05:52;;;;;;;0.10;0.10;;;;;;;16.97;59.29;101326.00;5125466;28;20020;-79
2022/09/16 12:11:03;;;;;;;0.10;0.10;;;;;;;16.38;60.79;101320.16;5029738;28;20378;-80
2022/09/16 12:13:43;;;;;;;0.10;0.10;;;;;;;16.33;61.15;101314.97;5027724;28;20034;-80
2022/09/16 12:16:17;;;;;;;0.00;0.00;;;;;;;16.36;62.14;101316.66;5029407;28;20053;-80
2022/09/16 12:19:04;;;;;;;0.10;0.10;;;;;;;16.54;64.04;101303.56;5026975;28;20044;-80
2022/09/16 12:21:36;;;;;;;0.20;0.20;;;;;;;16.84;63.83;101316.72;5030590;28;20021;-80
2022/09/16 12:24:11;;;;;;;;;;;;;;;17.18;62.88;101316.25;5029776;28;20044;-80
2022/09/16 12:26:46;;;;;;;0.10;0.10;;;;;;;17.25;63.40;101316.91;5028574;28;19913;-81
2022/09/16 12:29:21;;;;;;;0.10;0.10;;;;;;;17.37;61.97;101326.22;5028621;28;20018;-81
2022/09/16 12:31:55;;;;;;;0.10;0.10;;;;;;;17.38;62.29;101309.22;5029631;28;20029;-81
2022/09/16 12:34:30;;;;;;;0.10;0.10;;;;;;;17.40;62.24;101307.38;5030675;28;20524;-81
2022/09/16 12:37:10;;;;;;;0.10;0.10;;;;;;;17.53;62.81;101302.34;5028387;28;20063;-80
2022/09/16 12:39:37;;;;;;;0.00;0.00;;;;;;;17.61;62.42;101308.28;5029517;28;20056;-81
2022/09/16 12:42:43;;;;;;;0.10;0.10;;;;;;;17.81;60.83;101319.94;5028965;28;20037;-81
2022/09/16 12:50:57;;;;;;;0.80;0.60;;;;;;;17.88;59.23;101300.88;5085916;27;1181150;-80
2022/09/16 12:54:03;;;;;;;0.10;0.10;;;;;;;17.77;54.77;101297.78;5107963;28;20039;-79
2022/09/16 12:56:47;;;;;;;0.10;0.10;;;;;;;17.56;55.04;101313.81;5082565;28;20039;-79
2022/09/16 13:02:03;;;;;;;0.00;0.00;;;;;;;17.06;52.03;101309.59;5048082;27;20403;-79
2022/09/16 13:04:36;;;;;;;0.38;0.38;;;;;;;16.94;53.08;101304.72;5025146;28;20073;-79
2022/09/16 13:07:04;;;;;;;0.10;0.10;;;;;;;16.78;52.14;101294.56;5020137;28;20478;-79
2022/09/16 13:09:38;;;;;;;0.10;0.10;;;;;;;16.86;54.35;101293.41;5022187;28;20441;-79
2022/09/16 13:14:48;;;;;;;2.90;1.65;;;;;;;16.69;52.75;101302.97;5098547;27;20852;-78
2022/09/16 13:17:25;;;;;;;0.10;0.10;;;;;;;16.59;52.02;101304.25;5085381;28;20085;-78
2022/09/16 13:19:53;;;;;;;0.10;0.10;;;;;;;16.59;52.37;101302.44;5087163;28;20021;-79
2022/09/16 13:22:30;;;;;;;0.10;0.10;;;;;;;16.60;51.89;101303.34;5088007;28;20668;-80
2022/09/16 13:25:36;;;;;;;0.05;0.05;;;;;;;16.60;51.88;101308.69;5088765;28;20028;-78
2022/09/16 13:28:21;;;;;;;0.10;0.10;;;;;;;16.42;51.55;101311.09;5084232;28;20161;-79
2022/09/16 13:30:47;;;;;;;2.20;1.85;;;;;;;16.38;52.20;101314.81;5086912;28;20024;-80
2022/09/16 13:38:44;;;;;;;0.10;0.10;;;;;;;16.57;53.48;101311.47;5064977;28;20369;-78
2022/09/16 13:41:13;;;;;;;0.10;0.10;;;;;;;16.57;53.21;101314.13;5053000;28;20033;-81
2022/09/16 13:46:36;;;;;;;0.57;0.57;;;;;;;16.65;54.05;101301.34;5095315;27;20401;-78
2022/09/16 13:49:15;;;;;;;0.00;0.00;;;;;;;16.61;54.46;101300.59;5082885;28;20100;-80
2022/09/16 13:51:44;;;;;;;0.10;0.10;;;;;;;16.63;55.30;101297.84;5069780;28;20078;-81
2022/09/16 13:54:34;;;;;;;0.00;0.00;;;;;;;16.69;55.10;101311.00;5072583;28;20023;-80
2022/09/16 13:57:20;;;;;;;0.10;0.10;;;;;;;16.59;57.34;101304.25;5074712;28;20029;-79
2022/09/16 14:00:27;;;;;;;0.10;0.10;;;;;;;16.23;57.99;101288.66;5072812;28;20067;-79
2022/09/16 14:05:57;;;;;;;0.00;0.00;;;;;;;16.14;62.45;101289.88;5064039;28;20390;-81
2022/09/16 14:14:16;;;;;;;0.10;0.10;;;;;;;16.81;59.66;101283.78;5096854;27;20423;-79
2022/09/16 14:17:04;;;;;;;0.00;0.00;;;;;;;16.90;56.64;101279.84;5058770;28;20029;-80
2022/09/16 14:19:37;;;;;;;0.10;0.10;;;;;;;17.07;58.30;101281.91;5060693;28;20064;-79
2022/09/16 14:22:16;;;;;;;0.10;0.10;;;;;;;17.29;57.75;101276.50;5050516;28;20017;-79